Time;durP1;ratioP1;P1;durP2;ratioP2;P2;SDS_P1;SDS_P2;PMS_P1;PMS_P2;Temp;Humidity;BMP_temperature;BMP_pressure;BME280_temperature;BME280_humidity;BME280_pressure;Samples;Min_cycle;Max_cycle;Signal;HPM_P1;HPM_P2
2021/03/14 00:00:57;;;;;;;4.25;1.67;;;;;;;3.84;100.00;96068.75;5069274;28;20044;-79
2021/03/14 00:03:27;;;;;;;7.53;1.85;;;;;;;3.89;100.00;96071.28;5054047;28;20156;-79
2021/03/14 00:05:55;;;;;;;7.78;1.67;;;;;;;3.93;100.00;96079.47;5070903;28;20174;-79
2021/03/14 00:08:24;;;;;;;8.23;1.60;;;;;;;3.90;100.00;96090.81;5053590;28;20037;-79
2021/03/14 00:10:56;;;;;;;7.43;1.88;;;;;;;3.95;100.00;96090.66;5053557;28;20049;-79
2021/03/14 00:13:26;;;;;;;5.22;1.60;;;;;;;3.96;100.00;96105.63;5071642;28;20044;-78
2021/03/14 00:15:52;;;;;;;8.27;1.83;;;;;;;3.95;100.00;96090.66;5072006;28;20045;-80
2021/03/14 00:18:19;;;;;;;7.43;1.50;;;;;;;4.01;100.00;96114.31;5053177;28;20413;-80
2021/03/14 00:20:46;;;;;;;8.05;1.85;;;;;;;4.00;100.00;96102.00;5071460;28;20056;-80
2021/03/14 00:23:12;;;;;;;10.80;1.90;;;;;;;3.99;100.00;96118.38;5073246;28;20036;-78
2021/03/14 00:25:39;;;;;;;8.57;1.80;;;;;;;3.92;100.00;96104.66;5055039;28;20127;-79
2021/03/14 00:28:05;;;;;;;13.57;2.15;;;;;;;3.93;100.00;96116.94;5053212;28;20079;-78
2021/03/14 00:30:32;;;;;;;6.28;1.40;;;;;;;3.83;100.00;96123.34;5072036;28;20414;-79
2021/03/14 00:32:58;;;;;;;7.88;1.83;;;;;;;3.86;100.00;96121.94;5036512;28;20107;-79
2021/03/14 00:35:25;;;;;;;13.18;2.17;;;;;;;3.85;100.00;96110.47;5053552;28;20048;-79
2021/03/14 00:37:52;;;;;;;16.10;1.88;;;;;;;3.91;100.00;96111.91;5069536;28;20123;-79
2021/03/14 00:40:21;;;;;;;9.40;2.30;;;;;;;3.85;100.00;96101.63;5037281;28;20040;-78
2021/03/14 00:42:48;;;;;;;11.18;1.80;;;;;;;3.83;100.00;96098.47;5071387;28;20047;-78
2021/03/14 00:45:33;;;;;;;10.35;2.17;;;;;;;3.89;100.00;96103.41;5053139;28;20040;-78
2021/03/14 00:48:01;;;;;;;6.90;1.75;;;;;;;3.92;100.00;96107.34;5036313;28;20058;-78
2021/03/14 00:50:29;;;;;;;8.75;1.73;;;;;;;3.94;100.00;96105.16;5075558;28;20056;-79
2021/03/14 00:52:55;;;;;;;8.23;1.90;;;;;;;3.98;100.00;96108.75;5072227;28;20352;-78
2021/03/14 00:55:21;;;;;;;9.82;1.83;;;;;;;3.99;100.00;96113.81;5036463;28;20275;-79
2021/03/14 00:57:47;;;;;;;8.90;1.48;;;;;;;3.96;100.00;96113.66;5036286;28;20061;-79
2021/03/14 01:00:14;;;;;;;8.18;1.92;;;;;;;3.92;100.00;96112.69;5052385;28;20063;-79
2021/03/14 01:02:40;;;;;;;11.68;1.98;;;;;;;3.84;100.00;96110.78;5036170;28;20053;-80
2021/03/14 01:05:08;;;;;;;12.43;1.90;;;;;;;3.85;100.00;96118.47;5070975;28;20041;-79
2021/03/14 01:07:34;;;;;;;9.82;1.90;;;;;;;3.88;100.00;96141.16;5051434;28;20048;-80
2021/03/14 01:10:00;;;;;;;7.20;1.50;;;;;;;3.79;100.00;96125.84;5052908;28;20070;-79
2021/03/14 01:12:26;;;;;;;9.63;1.88;;;;;;;3.81;100.00;96141.63;5036362;28;20063;-80
2021/03/14 01:14:52;;;;;;;6.00;1.75;;;;;;;3.98;100.00;96148.91;5071697;28;20060;-80
2021/03/14 01:17:18;;;;;;;5.95;1.75;;;;;;;3.89;100.00;96156.94;5053312;28;20495;-80
2021/03/14 01:19:45;;;;;;;5.07;1.60;;;;;;;3.78;100.00;96156.41;5053246;28;20041;-79
2021/03/14 01:22:11;;;;;;;10.82;1.95;;;;;;;3.80;100.00;96145.38;5036847;28;20055;-78
2021/03/14 01:24:37;;;;;;;9.30;1.98;;;;;;;3.71;100.00;96152.59;5036980;28;20057;-79
2021/03/14 01:27:03;;;;;;;8.55;1.58;;;;;;;3.75;100.00;96151.66;5032819;28;20149;-79
2021/03/14 01:29:29;;;;;;;7.65;1.40;;;;;;;3.69;100.00;96157.47;5018438;28;20036;-79
2021/03/14 01:31:55;;;;;;;6.18;1.42;;;;;;;3.57;100.00;96151.88;5019389;28;20053;-79
2021/03/14 01:34:24;;;;;;;8.43;1.83;;;;;;;3.49;100.00;96148.06;5034942;28;20144;-79
2021/03/14 01:36:52;;;;;;;7.25;1.50;;;;;;;3.51;100.00;96148.53;5033417;28;20095;-80
2021/03/14 01:39:19;;;;;;;10.15;1.63;;;;;;;3.53;100.00;96143.69;5052016;28;20060;-80
2021/03/14 01:41:46;;;;;;;6.55;1.63;;;;;;;3.45;100.00;96148.97;5035835;28;20051;-79
2021/03/14 01:44:13;;;;;;;8.63;1.65;;;;;;;3.51;100.00;96147.75;5070816;28;20048;-79
2021/03/14 01:46:40;;;;;;;5.30;1.60;;;;;;;3.47;100.00;96152.13;5056594;28;20459;-79
2021/03/14 01:49:15;;;;;;;11.75;1.73;;;;;;;3.46;100.00;96154.00;5057423;28;20090;-78
2021/03/14 01:51:42;;;;;;;10.95;1.92;;;;;;;3.50;100.00;96165.69;5056084;28;20048;-79
2021/03/14 01:54:09;;;;;;;9.48;1.65;;;;;;;3.51;100.00;96167.25;5057534;28;20052;-79
2021/03/14 01:56:38;;;;;;;5.07;1.73;;;;;;;3.49;100.00;96166.78;5056282;28;20407;-80
2021/03/14 01:59:04;;;;;;;8.25;1.50;;;;;;;3.52;100.00;96166.16;5073878;28;20041;-78
2021/03/14 02:01:31;;;;;;;3.63;1.55;;;;;;;3.55;100.00;96162.88;5056037;28;20119;-79
2021/03/14 02:03:58;;;;;;;7.18;1.65;;;;;;;3.66;100.00;96166.91;5074548;28;20053;-79
2021/03/14 02:06:24;;;;;;;6.47;1.92;;;;;;;3.65;100.00;96170.66;5056460;28;20123;-79
2021/03/14 02:08:50;;;;;;;9.23;1.90;;;;;;;3.57;100.00;96162.56;5056343;28;20051;-79
2021/03/14 02:11:18;;;;;;;5.10;1.52;;;;;;;3.64;100.00;96166.38;5040555;28;20147;-78
2021/03/14 02:13:48;;;;;;;3.95;1.40;;;;;;;3.65;100.00;96178.69;5056526;28;20040;-79
2021/03/14 02:16:22;;;;;;;8.10;1.73;;;;;;;3.61;100.00;96175.03;5074444;28;20122;-79
2021/03/14 02:18:59;;;;;;;6.25;1.67;;;;;;;3.75;100.00;96188.34;5074227;28;20043;-79
2021/03/14 02:21:33;;;;;;;6.22;1.77;;;;;;;3.81;100.00;96189.00;5056578;28;20067;-79
2021/03/14 02:24:06;;;;;;;7.53;2.30;;;;;;;3.85;100.00;96184.59;5056557;28;20051;-79
2021/03/14 02:26:45;;;;;;;9.32;2.00;;;;;;;3.83;100.00;96189.47;5056681;28;20527;-79
2021/03/14 02:29:15;;;;;;;8.82;2.33;;;;;;;3.78;100.00;96190.41;5074078;28;20159;-79
2021/03/14 02:31:44;;;;;;;4.75;1.98;;;;;;;3.73;100.00;96179.81;5056364;28;20127;-79
2021/03/14 02:34:14;;;;;;;10.05;1.85;;;;;;;3.66;100.00;96184.84;5039236;28;20048;-79
2021/03/14 02:36:43;;;;;;;9.63;2.05;;;;;;;3.60;100.00;96183.38;5039021;28;20411;-79
2021/03/14 02:39:13;;;;;;;7.38;2.15;;;;;;;3.62;100.00;96176.63;5056584;28;20108;-79
2021/03/14 02:41:42;;;;;;;8.43;2.22;;;;;;;3.64;100.00;96185.13;5056517;28;20110;-78
2021/03/14 02:44:14;;;;;;;8.85;1.88;;;;;;;3.56;100.00;96188.53;5055637;28;20067;-79
2021/03/14 02:46:45;;;;;;;9.60;2.13;;;;;;;3.65;100.00;96184.03;5056453;28;20049;-78
2021/03/14 02:49:12;;;;;;;9.50;2.05;;;;;;;3.66;100.00;96188.31;5055650;28;20064;-79
2021/03/14 02:51:39;;;;;;;10.07;1.83;;;;;;;3.82;100.00;96190.59;5055458;28;20557;-79
2021/03/14 02:54:09;;;;;;;5.85;1.98;;;;;;;3.85;100.00;96192.63;5073347;28;20064;-78
2021/03/14 02:56:36;;;;;;;10.73;1.90;;;;;;;3.83;100.00;96184.13;5073558;28;20055;-79
2021/03/14 02:59:04;;;;;;;10.30;2.10;;;;;;;3.91;100.00;96186.84;5073635;28;20047;-79
2021/03/14 03:01:31;;;;;;;7.97;2.20;;;;;;;3.90;100.00;96189.84;5055437;28;20101;-79
2021/03/14 03:04:00;;;;;;;6.90;1.70;;;;;;;3.89;100.00;96188.25;5039231;28;20466;-79
2021/03/14 03:06:28;;;;;;;8.38;2.22;;;;;;;3.82;100.00;96204.72;5056087;28;20132;-79
2021/03/14 03:08:55;;;;;;;6.60;2.00;;;;;;;3.72;100.00;96188.94;5059566;28;20040;-79
2021/03/14 03:11:23;;;;;;;8.80;2.53;;;;;;;3.65;100.00;96202.75;5042169;28;20055;-79
2021/03/14 03:13:52;;;;;;;6.45;2.25;;;;;;;3.59;100.00;96201.31;5056648;28;20098;-79
2021/03/14 03:16:21;;;;;;;10.30;2.28;;;;;;;3.58;100.00;96205.09;5073110;28;20044;-79
2021/03/14 03:18:49;;;;;;;9.45;2.15;;;;;;;3.60;100.00;96208.25;5055322;28;20083;-79
2021/03/14 03:21:16;;;;;;;5.57;2.10;;;;;;;3.53;100.00;96207.88;5072745;28;20051;-79
2021/03/14 03:23:43;;;;;;;8.60;2.40;;;;;;;3.46;100.00;96202.16;5072361;28;20055;-79
2021/03/14 03:26:09;;;;;;;9.35;2.42;;;;;;;3.40;100.00;96213.28;5055735;28;20049;-79
2021/03/14 03:28:35;;;;;;;7.38;2.78;;;;;;;3.43;100.00;96200.06;5054529;28;20047;-79
2021/03/14 03:31:02;;;;;;;7.78;2.45;;;;;;;3.42;100.00;96205.75;5055776;28;20059;-78
2021/03/14 03:33:30;;;;;;;8.52;2.05;;;;;;;3.33;100.00;96211.03;5038598;28;20395;-79
2021/03/14 03:35:56;;;;;;;9.75;2.65;;;;;;;3.36;100.00;96213.09;5073829;28;20051;-79
2021/03/14 03:38:23;;;;;;;7.38;2.40;;;;;;;3.30;100.00;96214.31;5038467;28;20631;-79
2021/03/14 03:40:49;;;;;;;13.27;2.60;;;;;;;3.24;100.00;96210.19;5056279;28;20198;-79
2021/03/14 03:43:21;;;;;;;7.30;2.50;;;;;;;3.17;100.00;96220.50;5056438;28;20044;-78
2021/03/14 03:45:52;;;;;;;4.35;2.25;;;;;;;3.20;100.00;96221.78;5073565;28;20402;-78
2021/03/14 03:48:26;;;;;;;6.78;2.58;;;;;;;3.19;100.00;96215.66;5055348;28;20052;-79
2021/03/14 03:50:58;;;;;;;11.00;2.63;;;;;;;3.08;100.00;96216.94;5057089;28;20238;-79
2021/03/14 03:53:25;;;;;;;9.65;2.40;;;;;;;3.06;100.00;96224.50;5055726;28;20211;-79
2021/03/14 03:55:53;;;;;;;4.40;2.17;;;;;;;3.03;100.00;96220.53;5056133;28;20072;-79
2021/03/14 03:58:21;;;;;;;6.70;2.70;;;;;;;3.07;100.00;96226.09;5051919;28;20060;-79
2021/03/14 04:00:48;;;;;;;8.40;2.35;;;;;;;3.09;100.00;96234.59;5034926;28;20047;-79
2021/03/14 04:03:15;;;;;;;9.77;2.40;;;;;;;3.04;100.00;96229.34;5035610;28;20473;-79
2021/03/14 04:05:42;;;;;;;8.82;2.58;;;;;;;3.03;100.00;96238.44;5051491;28;20053;-79
2021/03/14 04:08:10;;;;;;;7.47;2.13;;;;;;;3.04;100.00;96232.03;5050967;28;20055;-78
2021/03/14 04:10:38;;;;;;;6.10;2.47;;;;;;;3.09;100.00;96215.88;5034371;28;20041;-80
2021/03/14 04:13:05;;;;;;;10.38;2.20;;;;;;;3.10;100.00;96231.59;5053370;28;20048;-79
2021/03/14 04:15:33;;;;;;;6.75;2.03;;;;;;;3.11;100.00;96227.84;5052708;28;20041;-78
2021/03/14 04:18:01;;;;;;;7.03;2.20;;;;;;;3.08;100.00;96243.69;5033336;28;20055;-78
2021/03/14 04:20:35;;;;;;;9.60;2.10;;;;;;;3.07;100.00;96231.44;5033258;28;20041;-78
2021/03/14 04:23:19;;;;;;;6.45;2.08;;;;;;;3.08;100.00;96233.78;5033522;28;20041;-78
2021/03/14 04:25:49;;;;;;;8.65;2.30;;;;;;;3.13;100.00;96251.59;5051137;28;20040;-81
2021/03/14 04:28:16;;;;;;;8.85;2.20;;;;;;;3.06;100.00;96245.88;5051343;28;20045;-79
2021/03/14 04:30:45;;;;;;;9.07;2.75;;;;;;;3.02;100.00;96260.94;5033514;28;20069;-79
2021/03/14 04:33:12;;;;;;;6.85;2.25;;;;;;;2.95;100.00;96261.34;5033570;28;20063;-79
2021/03/14 04:35:40;;;;;;;6.85;1.90;;;;;;;2.97;100.00;96285.88;5018851;28;20045;-78
2021/03/14 04:38:08;;;;;;;8.50;2.50;;;;;;;2.91;100.00;96281.75;5033815;28;20124;-79
2021/03/14 04:40:35;;;;;;;6.97;2.17;;;;;;;3.06;100.00;96286.78;5033878;28;20049;-79
2021/03/14 04:43:03;;;;;;;5.72;2.30;;;;;;;3.14;100.00;96296.75;5016873;28;20049;-78
2021/03/14 04:45:30;;;;;;;9.90;2.17;;;;;;;3.25;100.00;96300.00;5032458;28;20037;-78
2021/03/14 04:47:57;;;;;;;6.03;2.05;;;;;;;3.42;100.00;96307.38;5031838;28;20049;-78
2021/03/14 04:50:28;;;;;;;7.80;1.95;;;;;;;3.45;100.00;96304.09;5033614;28;20110;-79
2021/03/14 04:53:00;;;;;;;10.57;2.30;;;;;;;3.51;100.00;96310.94;5016880;28;20052;-79
2021/03/14 04:55:33;;;;;;;7.28;1.98;;;;;;;3.57;100.00;96315.06;5033103;28;20045;-79
2021/03/14 04:58:01;;;;;;;7.03;1.90;;;;;;;3.62;100.00;96333.66;5052186;28;20451;-78
2021/03/14 05:00:28;;;;;;;8.07;2.33;;;;;;;3.63;100.00;96336.06;5051361;28;20377;-79
2021/03/14 05:03:00;;;;;;;8.57;2.05;;;;;;;3.66;100.00;96340.81;5033462;28;20045;-79
2021/03/14 05:05:29;;;;;;;10.10;2.17;;;;;;;3.67;100.00;96337.03;5033561;28;20049;-79
2021/03/14 05:07:56;;;;;;;6.72;2.30;;;;;;;3.71;100.00;96330.00;5032899;28;20044;-79
2021/03/14 05:10:23;;;;;;;6.63;1.92;;;;;;;3.65;100.00;96331.19;5033697;28;20040;-79
2021/03/14 05:12:51;;;;;;;4.78;1.63;;;;;;;3.58;100.00;96338.84;5033822;28;20177;-79
2021/03/14 05:15:21;;;;;;;7.13;1.80;;;;;;;3.50;100.00;96352.94;5032273;28;20521;-79
2021/03/14 05:17:49;;;;;;;6.45;1.83;;;;;;;3.54;100.00;96345.09;5033435;28;20041;-81
2021/03/14 05:20:18;;;;;;;6.05;1.63;;;;;;;3.46;100.00;96351.16;5015799;28;20044;-79
2021/03/14 05:22:46;;;;;;;7.75;2.05;;;;;;;3.40;100.00;96347.81;5015837;28;20495;-78
2021/03/14 05:25:19;;;;;;;4.38;1.75;;;;;;;3.33;100.00;96357.34;5049751;28;20515;-79
2021/03/14 05:27:56;;;;;;;6.15;1.95;;;;;;;3.37;100.00;96359.09;5034550;28;20094;-78
2021/03/14 05:30:28;;;;;;;8.38;1.70;;;;;;;3.33;100.00;96363.44;5054113;28;20574;-79
2021/03/14 05:32:56;;;;;;;7.38;1.73;;;;;;;3.31;100.00;96362.97;5052250;28;20064;-79
2021/03/14 05:35:25;;;;;;;6.57;1.58;;;;;;;3.22;100.00;96367.44;5034276;28;20041;-79
2021/03/14 05:37:51;;;;;;;5.75;1.58;;;;;;;3.23;100.00;96378.94;5049659;28;20051;-81
2021/03/14 05:40:22;;;;;;;6.82;1.63;;;;;;;3.20;100.00;96366.16;5051123;28;20048;-79
2021/03/14 05:42:48;;;;;;;4.43;1.63;;;;;;;3.17;100.00;96381.69;5051346;28;20060;-78
2021/03/14 05:45:16;;;;;;;3.97;1.63;;;;;;;3.26;100.00;96375.66;5042201;28;20144;-78
2021/03/14 05:47:43;;;;;;;5.70;1.60;;;;;;;3.34;100.00;96380.28;5059745;23;20079;-76
2021/03/14 05:50:12;;;;;;;4.60;1.80;;;;;;;3.34;100.00;96380.28;5070797;28;20090;-77
2021/03/14 05:52:42;;;;;;;2.83;1.40;;;;;;;3.35;100.00;96390.72;5065138;28;20044;-76
2021/03/14 05:55:14;;;;;;;7.40;1.88;;;;;;;3.35;100.00;96392.59;5068046;28;20043;-77
2021/03/14 05:57:45;;;;;;;6.68;1.67;;;;;;;3.33;100.00;96392.09;5063586;28;20045;-76
2021/03/14 06:00:24;;;;;;;6.47;1.45;;;;;;;3.29;100.00;96399.13;5068419;28;20033;-77
2021/03/14 06:02:54;;;;;;;5.43;1.67;;;;;;;3.25;100.00;96401.63;5049171;28;20399;-77
2021/03/14 06:05:21;;;;;;;7.60;1.83;;;;;;;3.30;100.00;96414.88;5047530;28;20131;-76
2021/03/14 06:07:48;;;;;;;4.45;1.90;;;;;;;3.40;100.00;96405.84;5067609;28;20044;-76
2021/03/14 06:10:15;;;;;;;9.45;2.03;;;;;;;3.43;100.00;96406.03;5068396;28;20029;-78
2021/03/14 06:12:43;;;;;;;6.80;2.10;;;;;;;3.47;100.00;96412.38;5048376;28;20101;-76
2021/03/14 06:15:10;;;;;;;8.85;1.98;;;;;;;3.57;100.00;96412.16;5068445;28;20052;-76
2021/03/14 06:17:36;;;;;;;8.35;2.20;;;;;;;3.75;100.00;96413.13;5050395;28;20404;-75
2021/03/14 06:20:09;;;;;;;5.43;1.70;;;;;;;3.85;100.00;96412.09;5063901;28;20043;-76
2021/03/14 06:22:40;;;;;;;10.00;1.95;;;;;;;3.91;100.00;96430.44;5083169;28;20037;-77
2021/03/14 06:25:06;;;;;;;4.72;1.90;;;;;;;3.97;100.00;96431.13;5063017;28;20557;-77
2021/03/14 06:27:54;;;;;;;7.97;2.05;;;;;;;4.03;100.00;96438.72;5070391;28;20407;-76
2021/03/14 06:30:28;;;;;;;7.15;1.65;;;;;;;4.03;100.00;96449.44;5052530;28;20496;-77
2021/03/14 06:33:01;;;;;;;4.13;1.42;;;;;;;4.09;100.00;96450.13;5072879;28;20504;-77
2021/03/14 06:35:40;;;;;;;6.65;1.52;;;;;;;4.10;100.00;96457.06;5055208;28;20059;-77
2021/03/14 06:38:29;;;;;;;9.52;1.80;;;;;;;4.14;100.00;96460.72;5072405;28;20492;-78
2021/03/14 06:41:04;;;;;;;5.68;1.77;;;;;;;4.18;100.00;96467.84;5054403;28;20135;-77
2021/03/14 06:43:31;;;;;;;6.13;1.70;;;;;;;4.21;100.00;96475.28;5057944;28;20056;-77
2021/03/14 06:45:58;;;;;;;6.57;1.92;;;;;;;4.24;100.00;96473.88;5054188;28;20051;-77
2021/03/14 06:48:26;;;;;;;7.53;2.28;;;;;;;4.24;100.00;96474.66;5071786;28;20524;-76
2021/03/14 06:50:53;;;;;;;5.63;1.80;;;;;;;4.27;100.00;96476.75;5049705;28;20543;-76
2021/03/14 06:53:22;;;;;;;8.88;1.98;;;;;;;4.31;100.00;96483.06;5034272;28;20044;-76
2021/03/14 06:55:53;;;;;;;6.53;1.90;;;;;;;4.29;100.00;96481.78;5034305;28;20045;-76
2021/03/14 06:58:27;;;;;;;5.75;1.90;;;;;;;4.31;100.00;96495.69;5051943;28;20045;-76
2021/03/14 07:01:12;;;;;;;6.72;2.00;;;;;;;4.32;100.00;96502.63;5033963;28;20045;-77
2021/03/14 07:03:43;;;;;;;5.53;1.60;;;;;;;4.38;100.00;96506.78;5034336;28;20281;-75
2021/03/14 07:06:26;;;;;;;3.78;1.70;;;;;;;4.52;100.00;96523.59;5051547;28;20052;-76
2021/03/14 07:08:57;;;;;;;4.53;1.73;;;;;;;4.44;100.00;96516.28;5050929;28;20041;-76
2021/03/14 07:11:37;;;;;;;4.95;1.80;;;;;;;4.44;100.00;96539.63;5051527;28;20055;-76
2021/03/14 07:14:06;;;;;;;9.25;2.60;;;;;;;4.41;100.00;96535.66;5033959;28;20400;-76
2021/03/14 07:16:42;;;;;;;11.02;2.05;;;;;;;4.38;100.00;96555.81;5050959;28;20053;-77
2021/03/14 07:19:09;;;;;;;7.35;2.10;;;;;;;4.40;100.00;96542.09;5033843;28;20514;-77
2021/03/14 07:21:35;;;;;;;5.95;1.83;;;;;;;4.47;100.00;96537.09;5053963;28;20071;-75
2021/03/14 07:24:06;;;;;;;7.38;2.10;;;;;;;4.49;100.00;96560.94;5055372;28;20048;-78
2021/03/14 07:26:46;;;;;;;4.32;1.85;;;;;;;4.63;100.00;96549.06;5034488;28;20045;-77
2021/03/14 07:29:13;;;;;;;5.68;1.80;;;;;;;4.69;100.00;96542.50;5052998;28;20196;-77
2021/03/14 07:31:39;;;;;;;8.75;2.38;;;;;;;4.72;100.00;96557.19;5052169;28;20531;-77
2021/03/14 07:34:06;;;;;;;6.30;1.95;;;;;;;4.85;100.00;96549.06;5034781;28;20094;-76
2021/03/14 07:36:32;;;;;;;5.43;1.90;;;;;;;4.93;100.00;96550.22;5033800;28;20354;-77
2021/03/14 07:39:00;;;;;;;4.75;1.70;;;;;;;4.92;100.00;96551.34;5052015;28;20123;-79
2021/03/14 07:41:28;;;;;;;4.28;1.90;;;;;;;4.97;100.00;96562.75;5033329;28;20094;-75
2021/03/14 07:43:54;;;;;;;8.02;1.90;;;;;;;5.04;100.00;96571.16;5049346;28;20484;-77
2021/03/14 07:46:24;;;;;;;4.43;1.77;;;;;;;5.25;100.00;96581.38;5055848;28;20064;-78
2021/03/14 07:48:52;;;;;;;6.38;1.80;;;;;;;5.40;100.00;96579.09;5054975;28;20412;-78
2021/03/14 07:51:22;;;;;;;6.72;1.60;;;;;;;5.54;100.00;96581.72;5018656;28;20044;-77
2021/03/14 07:53:51;;;;;;;10.05;1.95;;;;;;;5.60;100.00;96593.91;5033636;28;20041;-76
2021/03/14 07:56:18;;;;;;;4.65;1.58;;;;;;;5.61;100.00;96588.22;5070173;28;20040;-76
2021/03/14 07:58:44;;;;;;;10.35;2.03;;;;;;;5.53;100.00;96591.66;5052816;28;20048;-77
2021/03/14 08:01:32;;;;;;;8.27;1.80;;;;;;;5.56;100.00;96598.28;5051698;28;20048;-76
2021/03/14 08:03:59;;;;;;;2.95;1.23;;;;;;;5.47;100.00;96616.25;5068287;28;20040;-76
2021/03/14 08:06:43;;;;;;;6.13;1.80;;;;;;;5.52;100.00;96608.84;5050769;28;20052;-76
2021/03/14 08:09:09;;;;;;;5.63;1.90;;;;;;;5.36;100.00;96620.28;5069321;28;20032;-75
2021/03/14 08:11:36;;;;;;;4.47;1.92;;;;;;;5.43;100.00;96640.22;5051847;28;20048;-76
2021/03/14 08:14:02;;;;;;;4.32;2.13;;;;;;;5.46;100.00;96630.75;5069193;28;20032;-77
2021/03/14 08:16:28;;;;;;;4.90;1.80;;;;;;;5.42;100.00;96635.16;5068039;28;20045;-76
2021/03/14 08:19:10;;;;;;;9.52;1.92;;;;;;;5.39;100.00;96623.16;5066439;28;20504;-75
2021/03/14 08:21:38;;;;;;;9.77;2.17;;;;;;;5.46;100.00;96638.81;5069230;28;20497;-76
2021/03/14 08:24:13;;;;;;;6.97;2.40;;;;;;;5.55;100.00;96634.28;5069949;28;20036;-77
2021/03/14 08:26:39;;;;;;;6.75;2.28;;;;;;;5.57;100.00;96650.91;5066491;28;20040;-77
2021/03/14 08:29:10;;;;;;;4.07;1.60;;;;;;;5.55;100.00;96653.88;5069751;28;20048;-77
2021/03/14 08:31:40;;;;;;;5.43;1.70;;;;;;;5.64;100.00;96665.47;5052416;28;20536;-78
2021/03/14 08:34:09;;;;;;;5.25;1.83;;;;;;;5.73;100.00;96673.56;5071272;28;20039;-78
2021/03/14 08:36:38;;;;;;;8.00;2.00;;;;;;;5.62;100.00;96672.25;5052197;28;20411;-76
2021/03/14 08:39:07;;;;;;;6.88;2.17;;;;;;;5.75;100.00;96692.84;5068885;28;20526;-76
2021/03/14 08:41:47;;;;;;;5.32;1.85;;;;;;;5.79;100.00;96675.03;5052620;28;20488;-77
2021/03/14 08:44:36;;;;;;;8.85;1.90;;;;;;;5.81;100.00;96701.59;5051685;28;20044;-77
2021/03/14 08:47:05;;;;;;;6.15;1.75;;;;;;;5.68;100.00;96689.03;5049675;28;20071;-77
2021/03/14 08:49:35;;;;;;;7.38;1.70;;;;;;;5.61;100.00;96687.53;5050051;28;20032;-75
2021/03/14 08:52:03;;;;;;;7.22;2.00;;;;;;;5.61;100.00;96689.44;5047923;28;20056;-77
2021/03/14 08:54:40;;;;;;;6.13;2.00;;;;;;;5.76;100.00;96697.09;5033304;28;20408;-77
2021/03/14 08:57:08;;;;;;;7.75;1.67;;;;;;;5.89;100.00;96698.16;5039426;28;20395;-77
2021/03/14 08:59:35;;;;;;;8.23;2.10;;;;;;;5.91;100.00;96702.13;5076126;28;20040;-76
2021/03/14 09:02:03;;;;;;;6.65;2.10;;;;;;;5.84;100.00;96711.69;5057959;28;20035;-75
2021/03/14 09:04:33;;;;;;;6.38;1.80;;;;;;;5.75;100.00;96694.75;5035555;28;20119;-75
2021/03/14 09:07:02;;;;;;;7.47;1.92;;;;;;;5.73;100.00;96705.78;5069841;28;20230;-75
2021/03/14 09:09:28;;;;;;;7.03;1.92;;;;;;;5.83;100.00;96705.53;5051826;28;20469;-75
2021/03/14 09:12:02;;;;;;;5.07;1.80;;;;;;;5.80;100.00;96698.09;5047937;28;20048;-75
2021/03/14 09:14:30;;;;;;;7.45;2.20;;;;;;;5.72;100.00;96720.31;5067660;28;20040;-76
2021/03/14 09:17:05;;;;;;;9.88;2.00;;;;;;;5.74;100.00;96720.00;5067768;28;20049;-77
2021/03/14 09:19:36;;;;;;;5.18;1.80;;;;;;;5.94;100.00;96716.81;5066629;28;20098;-75
2021/03/14 09:22:03;;;;;;;8.57;2.05;;;;;;;6.00;100.00;96731.72;5032522;28;20036;-74
2021/03/14 09:24:44;;;;;;;4.63;1.70;;;;;;;5.96;100.00;96728.84;5049488;28;20036;-75
2021/03/14 09:27:14;;;;;;;5.85;1.70;;;;;;;6.01;100.00;96757.50;5068693;28;20041;-75
2021/03/14 09:29:47;;;;;;;8.55;2.17;;;;;;;6.03;100.00;96731.13;5067680;28;20291;-76
2021/03/14 09:32:15;;;;;;;7.40;1.83;;;;;;;6.18;100.00;96739.59;5068925;28;20052;-75
2021/03/14 09:34:41;;;;;;;6.28;2.00;;;;;;;6.30;100.00;96736.31;5069166;28;20044;-75
2021/03/14 09:37:07;;;;;;;7.97;1.90;;;;;;;6.28;100.00;96747.38;5068784;28;20045;-77
2021/03/14 09:39:36;;;;;;;6.88;1.63;;;;;;;5.98;100.00;96731.25;5033289;28;20597;-75
2021/03/14 09:42:03;;;;;;;4.45;1.63;;;;;;;5.99;100.00;96752.41;5068429;28;20040;-75
2021/03/14 09:44:30;;;;;;;5.13;1.90;;;;;;;5.99;100.00;96754.31;5068156;28;20551;-74
2021/03/14 09:46:57;;;;;;;6.03;2.08;;;;;;;5.62;100.00;96767.00;5068051;28;20048;-75
2021/03/14 09:49:24;;;;;;;6.80;2.40;;;;;;;5.42;100.00;96762.06;5069130;28;20036;-75
2021/03/14 09:51:57;;;;;;;6.60;2.60;;;;;;;5.38;100.00;96782.56;5049674;28;20458;-75
2021/03/14 09:54:24;;;;;;;8.02;2.05;;;;;;;5.28;100.00;96787.38;5050547;28;20510;-75
2021/03/14 09:56:55;;;;;;;5.78;2.60;;;;;;;5.22;100.00;96791.25;5061685;28;20056;-75
2021/03/14 09:59:24;;;;;;;10.48;2.05;;;;;;;5.30;100.00;96785.97;5048826;28;20041;-75
2021/03/14 10:01:51;;;;;;;7.25;2.30;;;;;;;5.39;100.00;96791.41;5061800;28;20062;-75
2021/03/14 10:04:18;;;;;;;5.20;2.13;;;;;;;5.54;100.00;96789.19;5049649;28;20040;-76
2021/03/14 10:06:46;;;;;;;8.65;2.17;;;;;;;5.63;100.00;96795.41;5070108;28;20107;-75
2021/03/14 10:09:21;;;;;;;9.10;2.25;;;;;;;5.72;100.00;96806.22;5072853;28;20043;-75
2021/03/14 10:11:48;;;;;;;5.47;2.58;;;;;;;5.71;100.00;96810.00;5073533;28;20045;-75
2021/03/14 10:14:17;;;;;;;4.90;2.20;;;;;;;5.71;100.00;96804.63;5073282;28;20047;-75
2021/03/14 10:16:43;;;;;;;6.68;2.22;;;;;;;5.73;100.00;96821.22;5073479;28;20044;-74
2021/03/14 10:19:10;;;;;;;11.70;2.65;;;;;;;5.60;100.00;96797.94;5073737;28;20333;-76
2021/03/14 10:21:43;;;;;;;5.88;2.13;;;;;;;5.58;100.00;96817.00;5054651;28;20045;-76
2021/03/14 10:24:18;;;;;;;10.77;2.80;;;;;;;5.50;100.00;96815.03;5072447;28;20064;-74
2021/03/14 10:27:03;;;;;;;5.40;2.10;;;;;;;5.51;100.00;96823.88;5054687;28;20045;-75
2021/03/14 10:29:33;;;;;;;8.50;2.40;;;;;;;5.63;100.00;96824.94;5054451;28;20415;-75
2021/03/14 10:32:00;;;;;;;9.18;2.53;;;;;;;5.97;100.00;96829.03;5071723;28;20522;-77
2021/03/14 10:34:27;;;;;;;5.53;2.55;;;;;;;6.04;100.00;96824.81;5071380;28;20072;-77
2021/03/14 10:36:56;;;;;;;8.27;2.20;;;;;;;6.05;100.00;96833.69;5071056;28;20045;-75
2021/03/14 10:39:32;;;;;;;4.72;2.47;;;;;;;6.30;100.00;96835.75;5054629;28;20507;-75
2021/03/14 10:41:59;;;;;;;7.32;2.67;;;;;;;6.59;100.00;96821.84;5071513;28;20055;-75
2021/03/14 10:44:26;;;;;;;8.32;2.50;;;;;;;7.00;100.00;96843.06;5071735;28;20036;-75
2021/03/14 10:46:55;;;;;;;8.48;2.28;;;;;;;7.26;100.00;96835.88;5052596;28;20512;-76
2021/03/14 10:49:27;;;;;;;7.93;2.20;;;;;;;6.99;100.00;96845.00;5054124;28;20569;-76
2021/03/14 10:51:56;;;;;;;6.70;2.35;;;;;;;6.79;100.00;96869.72;5053131;28;20040;-75
2021/03/14 10:54:30;;;;;;;7.60;2.50;;;;;;;5.94;100.00;96867.25;5071635;28;20071;-75
2021/03/14 10:56:57;;;;;;;7.20;2.80;;;;;;;5.16;100.00;96873.75;5065236;28;20158;-75
2021/03/14 10:59:31;;;;;;;9.60;3.47;;;;;;;4.82;100.00;96881.34;5051100;28;20041;-74
2021/03/14 11:02:14;;;;;;;11.80;3.90;;;;;;;4.70;100.00;96875.66;5049335;28;20044;-74
2021/03/14 11:04:41;;;;;;;9.13;3.30;;;;;;;4.85;100.00;96875.41;5051083;28;20072;-73
2021/03/14 11:07:34;;;;;;;9.82;3.47;;;;;;;5.07;100.00;96883.56;5051916;28;20130;-76
2021/03/14 11:10:24;;;;;;;9.63;2.78;;;;;;;5.41;100.00;96889.31;5033553;28;20415;-76
2021/03/14 11:12:50;;;;;;;10.25;2.85;;;;;;;6.09;100.00;96866.91;5050547;28;20047;-78
2021/03/14 11:15:30;;;;;;;7.50;2.20;;;;;;;6.71;100.00;96862.44;5050819;28;20051;-76
2021/03/14 11:17:59;;;;;;;9.25;2.45;;;;;;;7.03;100.00;96867.47;5049824;28;20508;-76
2021/03/14 11:20:31;;;;;;;11.30;2.40;;;;;;;7.10;100.00;96869.72;5050416;28;20445;-76
2021/03/14 11:22:58;;;;;;;7.40;2.00;;;;;;;7.16;100.00;96853.13;5049884;28;20143;-76
2021/03/14 11:25:24;;;;;;;8.25;2.60;;;;;;;7.02;100.00;96889.31;5043196;28;20065;-77
2021/03/14 11:27:51;;;;;;;9.23;2.78;;;;;;;6.38;100.00;96872.66;5044095;28;20044;-78
2021/03/14 11:30:20;;;;;;;7.97;3.38;;;;;;;5.84;100.00;96895.09;5051360;28;20036;-77
2021/03/14 11:32:46;;;;;;;8.95;3.28;;;;;;;5.45;100.00;96898.34;5069121;28;20044;-78
2021/03/14 11:35:14;;;;;;;8.60;3.30;;;;;;;5.53;100.00;96913.75;5071427;28;20079;-77
2021/03/14 11:37:40;;;;;;;10.90;4.18;;;;;;;5.22;100.00;96902.03;5067723;28;20417;-77
2021/03/14 11:40:09;;;;;;;10.80;4.35;;;;;;;5.26;100.00;96899.56;5051019;28;20036;-78
2021/03/14 11:42:36;;;;;;;11.63;4.95;;;;;;;5.02;100.00;96905.91;5047985;28;20040;-76